sensor_id;sensor_type;location;lat;lon;timestamp;P1;durP1;ratioP1;P2;durP2;ratioP2
3465;SDS011;1747;48.884;9.160;2023-03-23T00:02:13;2.10;;;1.05;;
3465;SDS011;1747;48.884;9.160;2023-03-23T00:04:41;1.42;;;1.20;;
3465;SDS011;1747;48.884;9.160;2023-03-23T00:07:09;2.70;;;1.20;;
3465;SDS011;1747;48.884;9.160;2023-03-23T00:09:37;1.92;;;1.08;;
3465;SDS011;1747;48.884;9.160;2023-03-23T00:12:06;1.88;;;1.20;;
3465;SDS011;1747;48.884;9.160;2023-03-23T00:14:33;3.05;;;1.00;;
3465;SDS011;1747;48.884;9.160;2023-03-23T00:17:06;1.48;;;1.08;;
3465;SDS011;1747;48.884;9.160;2023-03-23T00:19:35;1.88;;;1.20;;
3465;SDS011;1747;48.884;9.160;2023-03-23T00:22:12;1.48;;;0.95;;
3465;SDS011;1747;48.884;9.160;2023-03-23T00:24:40;1.23;;;1.10;;
3465;SDS011;1747;48.884;9.160;2023-03-23T00:27:07;1.67;;;0.90;;
3465;SDS011;1747;48.884;9.160;2023-03-23T00:29:37;1.40;;;1.00;;
3465;SDS011;1747;48.884;9.160;2023-03-23T00:32:05;2.47;;;1.10;;
3465;SDS011;1747;48.884;9.160;2023-03-23T00:34:37;3.58;;;1.08;;
3465;SDS011;1747;48.884;9.160;2023-03-23T00:37:05;1.60;;;0.82;;
3465;SDS011;1747;48.884;9.160;2023-03-23T00:39:34;1.55;;;1.00;;
3465;SDS011;1747;48.884;9.160;2023-03-23T00:42:02;3.97;;;1.10;;
3465;SDS011;1747;48.884;9.160;2023-03-23T00:44:31;2.13;;;0.90;;
3465;SDS011;1747;48.884;9.160;2023-03-23T00:47:00;3.42;;;1.10;;
3465;SDS011;1747;48.884;9.160;2023-03-23T00:49:27;1.85;;;0.90;;
3465;SDS011;1747;48.884;9.160;2023-03-23T00:51:55;2.75;;;1.27;;
3465;SDS011;1747;48.884;9.160;2023-03-23T00:54:24;4.63;;;1.33;;
3465;SDS011;1747;48.884;9.160;2023-03-23T00:56:53;2.30;;;1.02;;
3465;SDS011;1747;48.884;9.160;2023-03-23T00:59:20;1.15;;;1.00;;
3465;SDS011;1747;48.884;9.160;2023-03-23T01:01:48;1.17;;;1.08;;
3465;SDS011;1747;48.884;9.160;2023-03-23T01:04:15;2.53;;;1.00;;
3465;SDS011;1747;48.884;9.160;2023-03-23T01:06:43;2.38;;;1.13;;
3465;SDS011;1747;48.884;9.160;2023-03-23T01:09:15;1.33;;;1.10;;
3465;SDS011;1747;48.884;9.160;2023-03-23T01:11:44;1.65;;;0.98;;
3465;SDS011;1747;48.884;9.160;2023-03-23T01:14:13;1.92;;;1.08;;
3465;SDS011;1747;48.884;9.160;2023-03-23T01:16:42;1.73;;;1.42;;
3465;SDS011;1747;48.884;9.160;2023-03-23T01:19:08;2.78;;;1.05;;
3465;SDS011;1747;48.884;9.160;2023-03-23T01:21:35;1.52;;;1.00;;
3465;SDS011;1747;48.884;9.160;2023-03-23T01:24:02;1.38;;;1.10;;
3465;SDS011;1747;48.884;9.160;2023-03-23T01:26:30;3.03;;;1.00;;
3465;SDS011;1747;48.884;9.160;2023-03-23T01:28:57;1.27;;;1.15;;
3465;SDS011;1747;48.884;9.160;2023-03-23T01:31:25;1.27;;;0.90;;
3465;SDS011;1747;48.884;9.160;2023-03-23T01:33:52;1.75;;;1.10;;
3465;SDS011;1747;48.884;9.160;2023-03-23T01:36:21;1.40;;;1.10;;
3465;SDS011;1747;48.884;9.160;2023-03-23T01:38:49;3.67;;;1.20;;
3465;SDS011;1747;48.884;9.160;2023-03-23T01:41:17;1.05;;;0.95;;
3465;SDS011;1747;48.884;9.160;2023-03-23T01:43:55;2.47;;;1.30;;
3465;SDS011;1747;48.884;9.160;2023-03-23T01:46:26;1.20;;;1.10;;
3465;SDS011;1747;48.884;9.160;2023-03-23T01:48:53;1.35;;;1.00;;
3465;SDS011;1747;48.884;9.160;2023-03-23T01:51:21;2.72;;;1.25;;
3465;SDS011;1747;48.884;9.160;2023-03-23T01:53:50;2.22;;;1.27;;
3465;SDS011;1747;48.884;9.160;2023-03-23T01:56:21;2.30;;;1.20;;
3465;SDS011;1747;48.884;9.160;2023-03-23T01:58:51;1.25;;;0.98;;
3465;SDS011;1747;48.884;9.160;2023-03-23T02:01:20;1.42;;;1.17;;
3465;SDS011;1747;48.884;9.160;2023-03-23T02:03:51;1.15;;;0.90;;
3465;SDS011;1747;48.884;9.160;2023-03-23T02:06:20;2.75;;;1.20;;
3465;SDS011;1747;48.884;9.160;2023-03-23T02:08:49;2.38;;;1.25;;
3465;SDS011;1747;48.884;9.160;2023-03-23T02:11:18;1.63;;;1.10;;
3465;SDS011;1747;48.884;9.160;2023-03-23T02:13:49;1.23;;;1.02;;
3465;SDS011;1747;48.884;9.160;2023-03-23T02:16:19;4.32;;;1.30;;
3465;SDS011;1747;48.884;9.160;2023-03-23T02:19:00;1.95;;;1.30;;
3465;SDS011;1747;48.884;9.160;2023-03-23T02:22:01;2.20;;;1.45;;
3465;SDS011;1747;48.884;9.160;2023-03-23T02:24:59;2.85;;;1.30;;
3465;SDS011;1747;48.884;9.160;2023-03-23T02:27:55;1.38;;;1.10;;
3465;SDS011;1747;48.884;9.160;2023-03-23T02:33:49;1.40;;;1.10;;
3465;SDS011;1747;48.884;9.160;2023-03-23T02:36:23;2.67;;;1.40;;
3465;SDS011;1747;48.884;9.160;2023-03-23T02:38:56;2.35;;;1.38;;
3465;SDS011;1747;48.884;9.160;2023-03-23T02:41:29;2.45;;;1.38;;
3465;SDS011;1747;48.884;9.160;2023-03-23T02:44:01;1.75;;;1.33;;
3465;SDS011;1747;48.884;9.160;2023-03-23T02:46:30;2.55;;;1.30;;
3465;SDS011;1747;48.884;9.160;2023-03-23T02:48:59;1.73;;;1.40;;
3465;SDS011;1747;48.884;9.160;2023-03-23T02:51:27;1.52;;;1.10;;
3465;SDS011;1747;48.884;9.160;2023-03-23T02:53:55;2.88;;;1.55;;
3465;SDS011;1747;48.884;9.160;2023-03-23T02:56:25;3.33;;;1.40;;
3465;SDS011;1747;48.884;9.160;2023-03-23T02:58:54;2.90;;;1.50;;
3465;SDS011;1747;48.884;9.160;2023-03-23T03:04:27;2.15;;;1.30;;
3465;SDS011;1747;48.884;9.160;2023-03-23T03:07:01;3.13;;;1.40;;
3465;SDS011;1747;48.884;9.160;2023-03-23T03:09:40;3.22;;;1.30;;
3465;SDS011;1747;48.884;9.160;2023-03-23T03:12:14;2.67;;;1.40;;
3465;SDS011;1747;48.884;9.160;2023-03-23T03:14:47;1.83;;;1.33;;
3465;SDS011;1747;48.884;9.160;2023-03-23T03:17:19;3.17;;;1.38;;
3465;SDS011;1747;48.884;9.160;2023-03-23T03:19:51;1.73;;;1.30;;
3465;SDS011;1747;48.884;9.160;2023-03-23T03:22:22;4.95;;;1.20;;
3465;SDS011;1747;48.884;9.160;2023-03-23T03:24:53;3.92;;;1.75;;
3465;SDS011;1747;48.884;9.160;2023-03-23T03:27:22;3.88;;;1.50;;
3465;SDS011;1747;48.884;9.160;2023-03-23T03:29:53;3.55;;;1.80;;
3465;SDS011;1747;48.884;9.160;2023-03-23T03:32:24;2.33;;;1.40;;
3465;SDS011;1747;48.884;9.160;2023-03-23T03:34:59;1.52;;;1.25;;
3465;SDS011;1747;48.884;9.160;2023-03-23T03:37:27;2.15;;;1.20;;
3465;SDS011;1747;48.884;9.160;2023-03-23T03:40:02;1.70;;;1.20;;
3465;SDS011;1747;48.884;9.160;2023-03-23T03:42:33;1.80;;;1.25;;
3465;SDS011;1747;48.884;9.160;2023-03-23T03:45:00;3.10;;;1.33;;
3465;SDS011;1747;48.884;9.160;2023-03-23T03:47:27;1.65;;;1.30;;
3465;SDS011;1747;48.884;9.160;2023-03-23T03:49:53;1.83;;;1.20;;
3465;SDS011;1747;48.884;9.160;2023-03-23T03:52:22;2.47;;;1.40;;
3465;SDS011;1747;48.884;9.160;2023-03-23T03:54:48;1.98;;;1.20;;
3465;SDS011;1747;48.884;9.160;2023-03-23T03:57:16;2.40;;;1.30;;
3465;SDS011;1747;48.884;9.160;2023-03-23T03:59:43;1.58;;;1.20;;
3465;SDS011;1747;48.884;9.160;2023-03-23T04:02:10;1.27;;;1.05;;
3465;SDS011;1747;48.884;9.160;2023-03-23T04:04:39;1.30;;;1.05;;
3465;SDS011;1747;48.884;9.160;2023-03-23T04:07:06;1.40;;;1.10;;
3465;SDS011;1747;48.884;9.160;2023-03-23T04:09:37;2.40;;;1.10;;
3465;SDS011;1747;48.884;9.160;2023-03-23T04:12:04;2.50;;;1.20;;
3465;SDS011;1747;48.884;9.160;2023-03-23T04:14:32;3.20;;;1.17;;
3465;SDS011;1747;48.884;9.160;2023-03-23T04:16:58;1.83;;;1.30;;
3465;SDS011;1747;48.884;9.160;2023-03-23T04:19:25;1.40;;;1.00;;
3465;SDS011;1747;48.884;9.160;2023-03-23T04:21:53;1.40;;;1.20;;
3465;SDS011;1747;48.884;9.160;2023-03-23T04:24:20;1.20;;;1.10;;
3465;SDS011;1747;48.884;9.160;2023-03-23T04:26:50;1.20;;;1.10;;
3465;SDS011;1747;48.884;9.160;2023-03-23T04:29:19;2.17;;;1.30;;
3465;SDS011;1747;48.884;9.160;2023-03-23T04:31:46;1.35;;;0.90;;
3465;SDS011;1747;48.884;9.160;2023-03-23T04:34:15;2.95;;;1.27;;
3465;SDS011;1747;48.884;9.160;2023-03-23T04:36:43;1.77;;;1.55;;
3465;SDS011;1747;48.884;9.160;2023-03-23T04:39:11;1.98;;;1.23;;
3465;SDS011;1747;48.884;9.160;2023-03-23T04:41:38;2.25;;;1.33;;
3465;SDS011;1747;48.884;9.160;2023-03-23T04:44:07;2.33;;;1.30;;
3465;SDS011;1747;48.884;9.160;2023-03-23T04:46:34;3.00;;;1.17;;
3465;SDS011;1747;48.884;9.160;2023-03-23T04:49:01;4.50;;;1.20;;
3465;SDS011;1747;48.884;9.160;2023-03-23T04:51:28;4.18;;;1.45;;
3465;SDS011;1747;48.884;9.160;2023-03-23T04:53:56;1.83;;;1.27;;
3465;SDS011;1747;48.884;9.160;2023-03-23T04:56:23;1.40;;;1.30;;
3465;SDS011;1747;48.884;9.160;2023-03-23T04:58:50;2.30;;;1.67;;
3465;SDS011;1747;48.884;9.160;2023-03-23T05:01:18;1.88;;;1.40;;
3465;SDS011;1747;48.884;9.160;2023-03-23T05:03:44;1.58;;;1.20;;
3465;SDS011;1747;48.884;9.160;2023-03-23T05:06:11;4.88;;;1.23;;
3465;SDS011;1747;48.884;9.160;2023-03-23T05:08:38;2.17;;;1.25;;
3465;SDS011;1747;48.884;9.160;2023-03-23T05:11:06;1.88;;;1.10;;
3465;SDS011;1747;48.884;9.160;2023-03-23T05:13:33;1.52;;;1.00;;
3465;SDS011;1747;48.884;9.160;2023-03-23T05:16:02;2.15;;;1.13;;
3465;SDS011;1747;48.884;9.160;2023-03-23T05:18:31;1.63;;;1.17;;
3465;SDS011;1747;48.884;9.160;2023-03-23T05:20:59;1.95;;;1.20;;
3465;SDS011;1747;48.884;9.160;2023-03-23T05:23:27;1.13;;;0.98;;
3465;SDS011;1747;48.884;9.160;2023-03-23T05:25:56;2.28;;;1.25;;
3465;SDS011;1747;48.884;9.160;2023-03-23T05:28:25;1.45;;;0.90;;
3465;SDS011;1747;48.884;9.160;2023-03-23T05:30:52;2.25;;;1.30;;
3465;SDS011;1747;48.884;9.160;2023-03-23T05:33:20;2.55;;;1.20;;
3465;SDS011;1747;48.884;9.160;2023-03-23T05:35:49;1.23;;;1.10;;
3465;SDS011;1747;48.884;9.160;2023-03-23T05:38:15;2.33;;;1.27;;
3465;SDS011;1747;48.884;9.160;2023-03-23T05:40:43;2.63;;;1.02;;
3465;SDS011;1747;48.884;9.160;2023-03-23T05:43:12;3.58;;;1.10;;
3465;SDS011;1747;48.884;9.160;2023-03-23T05:45:49;1.23;;;1.05;;
3465;SDS011;1747;48.884;9.160;2023-03-23T05:48:16;3.83;;;1.17;;
3465;SDS011;1747;48.884;9.160;2023-03-23T05:50:42;2.67;;;1.20;;
3465;SDS011;1747;48.884;9.160;2023-03-23T05:53:11;2.30;;;1.50;;
3465;SDS011;1747;48.884;9.160;2023-03-23T05:55:38;5.43;;;1.50;;
3465;SDS011;1747;48.884;9.160;2023-03-23T05:58:04;1.60;;;1.23;;
3465;SDS011;1747;48.884;9.160;2023-03-23T06:00:31;2.95;;;1.33;;
3465;SDS011;1747;48.884;9.160;2023-03-23T06:02:59;3.47;;;1.60;;
3465;SDS011;1747;48.884;9.160;2023-03-23T06:05:27;1.58;;;1.08;;
3465;SDS011;1747;48.884;9.160;2023-03-23T06:07:54;2.17;;;1.20;;
3465;SDS011;1747;48.884;9.160;2023-03-23T06:10:23;1.95;;;1.23;;
3465;SDS011;1747;48.884;9.160;2023-03-23T06:12:50;2.67;;;1.20;;
3465;SDS011;1747;48.884;9.160;2023-03-23T06:15:17;2.50;;;1.23;;
3465;SDS011;1747;48.884;9.160;2023-03-23T06:17:44;2.55;;;1.40;;
3465;SDS011;1747;48.884;9.160;2023-03-23T06:20:11;2.30;;;1.30;;
3465;SDS011;1747;48.884;9.160;2023-03-23T06:22:38;2.13;;;1.15;;
3465;SDS011;1747;48.884;9.160;2023-03-23T06:25:06;2.03;;;1.10;;
3465;SDS011;1747;48.884;9.160;2023-03-23T06:27:37;2.97;;;1.50;;
3465;SDS011;1747;48.884;9.160;2023-03-23T06:30:04;2.35;;;1.25;;
3465;SDS011;1747;48.884;9.160;2023-03-23T06:32:32;2.75;;;1.50;;
3465;SDS011;1747;48.884;9.160;2023-03-23T06:35:00;3.50;;;1.30;;
3465;SDS011;1747;48.884;9.160;2023-03-23T06:37:28;1.60;;;1.30;;
3465;SDS011;1747;48.884;9.160;2023-03-23T06:39:55;2.67;;;1.30;;
3465;SDS011;1747;48.884;9.160;2023-03-23T06:42:22;2.17;;;1.20;;
3465;SDS011;1747;48.884;9.160;2023-03-23T06:44:51;2.58;;;1.50;;
3465;SDS011;1747;48.884;9.160;2023-03-23T06:47:21;1.52;;;1.25;;
3465;SDS011;1747;48.884;9.160;2023-03-23T06:49:48;3.25;;;1.63;;
3465;SDS011;1747;48.884;9.160;2023-03-23T06:52:15;2.10;;;1.63;;
3465;SDS011;1747;48.884;9.160;2023-03-23T06:54:42;2.22;;;1.50;;
3465;SDS011;1747;48.884;9.160;2023-03-23T06:57:09;1.60;;;1.33;;
3465;SDS011;1747;48.884;9.160;2023-03-23T06:59:36;3.05;;;1.95;;
3465;SDS011;1747;48.884;9.160;2023-03-23T07:02:04;2.10;;;1.60;;
3465;SDS011;1747;48.884;9.160;2023-03-23T07:04:31;2.50;;;1.58;;
3465;SDS011;1747;48.884;9.160;2023-03-23T07:06:58;1.95;;;1.42;;
3465;SDS011;1747;48.884;9.160;2023-03-23T07:09:25;4.88;;;1.70;;
3465;SDS011;1747;48.884;9.160;2023-03-23T07:11:52;3.72;;;1.63;;
3465;SDS011;1747;48.884;9.160;2023-03-23T07:14:19;6.65;;;1.70;;
3465;SDS011;1747;48.884;9.160;2023-03-23T07:16:46;4.38;;;1.75;;
3465;SDS011;1747;48.884;9.160;2023-03-23T07:19:15;4.13;;;1.77;;
3465;SDS011;1747;48.884;9.160;2023-03-23T07:21:41;2.70;;;1.85;;
3465;SDS011;1747;48.884;9.160;2023-03-23T07:24:10;3.17;;;1.98;;
3465;SDS011;1747;48.884;9.160;2023-03-23T07:26:38;2.97;;;1.80;;
3465;SDS011;1747;48.884;9.160;2023-03-23T07:29:05;5.45;;;2.35;;
3465;SDS011;1747;48.884;9.160;2023-03-23T07:31:32;3.15;;;1.85;;
3465;SDS011;1747;48.884;9.160;2023-03-23T07:33:59;4.40;;;1.73;;
3465;SDS011;1747;48.884;9.160;2023-03-23T07:36:29;3.08;;;1.55;;
3465;SDS011;1747;48.884;9.160;2023-03-23T07:38:56;4.65;;;1.92;;
3465;SDS011;1747;48.884;9.160;2023-03-23T07:41:23;2.13;;;1.70;;
3465;SDS011;1747;48.884;9.160;2023-03-23T07:43:50;2.88;;;1.75;;
3465;SDS011;1747;48.884;9.160;2023-03-23T07:46:17;4.00;;;1.70;;
3465;SDS011;1747;48.884;9.160;2023-03-23T07:48:44;3.42;;;1.80;;
3465;SDS011;1747;48.884;9.160;2023-03-23T07:51:11;2.08;;;1.50;;
3465;SDS011;1747;48.884;9.160;2023-03-23T07:53:39;2.92;;;1.60;;
3465;SDS011;1747;48.884;9.160;2023-03-23T07:56:09;3.42;;;1.67;;
3465;SDS011;1747;48.884;9.160;2023-03-23T07:58:36;2.72;;;1.70;;
3465;SDS011;1747;48.884;9.160;2023-03-23T08:01:03;2.72;;;1.83;;
3465;SDS011;1747;48.884;9.160;2023-03-23T08:03:31;2.58;;;1.65;;
3465;SDS011;1747;48.884;9.160;2023-03-23T08:05:59;3.38;;;1.48;;
3465;SDS011;1747;48.884;9.160;2023-03-23T08:08:26;2.72;;;1.25;;
3465;SDS011;1747;48.884;9.160;2023-03-23T08:10:54;2.42;;;1.38;;
3465;SDS011;1747;48.884;9.160;2023-03-23T08:13:21;3.42;;;1.38;;
3465;SDS011;1747;48.884;9.160;2023-03-23T08:15:48;3.28;;;1.58;;
3465;SDS011;1747;48.884;9.160;2023-03-23T08:18:16;1.80;;;1.40;;
3465;SDS011;1747;48.884;9.160;2023-03-23T08:20:43;2.17;;;1.42;;
3465;SDS011;1747;48.884;9.160;2023-03-23T08:23:10;2.75;;;1.92;;
3465;SDS011;1747;48.884;9.160;2023-03-23T08:25:37;1.48;;;1.20;;
3465;SDS011;1747;48.884;9.160;2023-03-23T08:28:06;4.22;;;1.77;;
3465;SDS011;1747;48.884;9.160;2023-03-23T08:30:34;3.75;;;1.60;;
3465;SDS011;1747;48.884;9.160;2023-03-23T08:33:02;4.47;;;1.70;;
3465;SDS011;1747;48.884;9.160;2023-03-23T08:35:29;1.63;;;1.33;;
3465;SDS011;1747;48.884;9.160;2023-03-23T08:37:56;3.30;;;1.65;;
3465;SDS011;1747;48.884;9.160;2023-03-23T08:40:24;3.25;;;1.60;;
3465;SDS011;1747;48.884;9.160;2023-03-23T08:42:52;5.28;;;1.65;;
3465;SDS011;1747;48.884;9.160;2023-03-23T08:45:21;2.65;;;1.58;;
3465;SDS011;1747;48.884;9.160;2023-03-23T08:47:50;2.05;;;1.33;;
3465;SDS011;1747;48.884;9.160;2023-03-23T08:50:21;1.98;;;1.30;;
3465;SDS011;1747;48.884;9.160;2023-03-23T08:52:50;3.70;;;1.45;;
3465;SDS011;1747;48.884;9.160;2023-03-23T08:55:18;3.38;;;1.52;;
3465;SDS011;1747;48.884;9.160;2023-03-23T08:57:45;1.98;;;1.52;;
3465;SDS011;1747;48.884;9.160;2023-03-23T09:00:13;2.55;;;1.60;;
3465;SDS011;1747;48.884;9.160;2023-03-23T09:02:46;2.28;;;1.65;;
3465;SDS011;1747;48.884;9.160;2023-03-23T09:05:14;2.83;;;1.65;;
3465;SDS011;1747;48.884;9.160;2023-03-23T09:07:44;2.85;;;1.88;;
3465;SDS011;1747;48.884;9.160;2023-03-23T09:10:12;2.30;;;1.73;;
3465;SDS011;1747;48.884;9.160;2023-03-23T09:12:40;4.63;;;1.80;;
3465;SDS011;1747;48.884;9.160;2023-03-23T09:15:09;3.83;;;1.55;;
3465;SDS011;1747;48.884;9.160;2023-03-23T09:17:39;3.92;;;1.70;;
3465;SDS011;1747;48.884;9.160;2023-03-23T09:20:10;5.10;;;2.10;;
3465;SDS011;1747;48.884;9.160;2023-03-23T09:22:38;3.45;;;1.70;;
3465;SDS011;1747;48.884;9.160;2023-03-23T09:25:06;2.47;;;1.58;;
3465;SDS011;1747;48.884;9.160;2023-03-23T09:27:35;11.05;;;2.13;;
3465;SDS011;1747;48.884;9.160;2023-03-23T09:30:04;5.05;;;1.70;;
3465;SDS011;1747;48.884;9.160;2023-03-23T09:32:32;2.45;;;1.35;;
3465;SDS011;1747;48.884;9.160;2023-03-23T09:35:00;2.10;;;1.33;;
3465;SDS011;1747;48.884;9.160;2023-03-23T09:37:29;2.28;;;1.65;;
3465;SDS011;1747;48.884;9.160;2023-03-23T09:39:56;2.22;;;1.35;;
3465;SDS011;1747;48.884;9.160;2023-03-23T09:42:29;2.05;;;1.67;;
3465;SDS011;1747;48.884;9.160;2023-03-23T09:45:14;4.38;;;1.73;;
3465;SDS011;1747;48.884;9.160;2023-03-23T09:47:48;2.50;;;1.60;;
3465;SDS011;1747;48.884;9.160;2023-03-23T09:50:24;2.67;;;1.63;;
3465;SDS011;1747;48.884;9.160;2023-03-23T09:53:00;3.35;;;1.30;;
3465;SDS011;1747;48.884;9.160;2023-03-23T09:55:31;6.15;;;2.20;;
3465;SDS011;1747;48.884;9.160;2023-03-23T09:57:58;2.97;;;1.70;;
3465;SDS011;1747;48.884;9.160;2023-03-23T10:00:30;3.80;;;1.60;;
3465;SDS011;1747;48.884;9.160;2023-03-23T10:03:00;4.00;;;1.77;;
3465;SDS011;1747;48.884;9.160;2023-03-23T10:05:33;1.63;;;1.40;;
3465;SDS011;1747;48.884;9.160;2023-03-23T10:08:05;2.40;;;1.42;;
3465;SDS011;1747;48.884;9.160;2023-03-23T10:10:40;4.05;;;1.30;;
3465;SDS011;1747;48.884;9.160;2023-03-23T10:13:16;1.50;;;1.10;;
3465;SDS011;1747;48.884;9.160;2023-03-23T10:15:51;1.48;;;1.10;;
3465;SDS011;1747;48.884;9.160;2023-03-23T10:18:20;2.60;;;1.52;;
3465;SDS011;1747;48.884;9.160;2023-03-23T10:20:53;1.10;;;1.00;;
3465;SDS011;1747;48.884;9.160;2023-03-23T10:26:18;2.78;;;1.08;;
3465;SDS011;1747;48.884;9.160;2023-03-23T10:28:56;2.45;;;1.10;;
3465;SDS011;1747;48.884;9.160;2023-03-23T10:31:27;1.40;;;1.10;;
3465;SDS011;1747;48.884;9.160;2023-03-23T10:33:58;1.23;;;1.13;;
3465;SDS011;1747;48.884;9.160;2023-03-23T10:36:30;1.88;;;1.13;;
3465;SDS011;1747;48.884;9.160;2023-03-23T10:39:03;2.03;;;1.20;;
3465;SDS011;1747;48.884;9.160;2023-03-23T10:41:36;1.58;;;1.05;;
3465;SDS011;1747;48.884;9.160;2023-03-23T10:44:07;2.45;;;1.20;;
3465;SDS011;1747;48.884;9.160;2023-03-23T10:46:40;2.03;;;1.27;;
3465;SDS011;1747;48.884;9.160;2023-03-23T10:49:13;1.08;;;0.98;;
3465;SDS011;1747;48.884;9.160;2023-03-23T10:51:43;1.05;;;0.90;;
3465;SDS011;1747;48.884;9.160;2023-03-23T10:54:24;2.55;;;0.98;;
3465;SDS011;1747;48.884;9.160;2023-03-23T10:56:52;4.70;;;1.20;;
3465;SDS011;1747;48.884;9.160;2023-03-23T10:59:21;1.10;;;0.88;;
3465;SDS011;1747;48.884;9.160;2023-03-23T11:01:54;2.53;;;1.10;;
3465;SDS011;1747;48.884;9.160;2023-03-23T11:04:24;2.42;;;1.00;;
3465;SDS011;1747;48.884;9.160;2023-03-23T11:06:53;2.45;;;1.25;;
3465;SDS011;1747;48.884;9.160;2023-03-23T11:09:35;1.13;;;1.02;;
3465;SDS011;1747;48.884;9.160;2023-03-23T11:12:03;1.83;;;1.23;;
3465;SDS011;1747;48.884;9.160;2023-03-23T11:14:30;2.25;;;1.17;;
3465;SDS011;1747;48.884;9.160;2023-03-23T11:16:59;1.67;;;1.30;;
3465;SDS011;1747;48.884;9.160;2023-03-23T11:19:28;1.45;;;1.30;;
3465;SDS011;1747;48.884;9.160;2023-03-23T11:21:58;2.33;;;1.20;;
3465;SDS011;1747;48.884;9.160;2023-03-23T11:24:31;1.95;;;1.10;;
3465;SDS011;1747;48.884;9.160;2023-03-23T11:27:01;1.75;;;1.10;;
3465;SDS011;1747;48.884;9.160;2023-03-23T11:29:32;1.77;;;1.02;;
3465;SDS011;1747;48.884;9.160;2023-03-23T11:32:04;2.72;;;1.23;;
3465;SDS011;1747;48.884;9.160;2023-03-23T11:34:36;2.00;;;1.20;;
3465;SDS011;1747;48.884;9.160;2023-03-23T11:37:08;1.73;;;1.25;;
3465;SDS011;1747;48.884;9.160;2023-03-23T11:39:54;3.78;;;1.42;;
3465;SDS011;1747;48.884;9.160;2023-03-23T11:42:23;1.85;;;1.10;;
3465;SDS011;1747;48.884;9.160;2023-03-23T11:44:53;1.60;;;1.40;;
3465;SDS011;1747;48.884;9.160;2023-03-23T11:47:23;2.78;;;1.20;;
3465;SDS011;1747;48.884;9.160;2023-03-23T11:49:58;1.90;;;1.48;;
3465;SDS011;1747;48.884;9.160;2023-03-23T11:52:32;2.40;;;1.20;;
3465;SDS011;1747;48.884;9.160;2023-03-23T11:55:15;1.85;;;1.25;;
3465;SDS011;1747;48.884;9.160;2023-03-23T11:57:45;3.88;;;1.30;;
3465;SDS011;1747;48.884;9.160;2023-03-23T12:00:14;2.55;;;1.70;;
3465;SDS011;1747;48.884;9.160;2023-03-23T12:02:45;1.88;;;1.25;;
3465;SDS011;1747;48.884;9.160;2023-03-23T12:05:39;4.18;;;1.52;;
3465;SDS011;1747;48.884;9.160;2023-03-23T12:08:15;1.85;;;1.20;;
3465;SDS011;1747;48.884;9.160;2023-03-23T12:10:53;2.55;;;1.40;;
3465;SDS011;1747;48.884;9.160;2023-03-23T12:13:28;2.90;;;1.48;;
3465;SDS011;1747;48.884;9.160;2023-03-23T12:16:05;2.67;;;1.40;;
3465;SDS011;1747;48.884;9.160;2023-03-23T12:18:43;1.92;;;1.50;;
3465;SDS011;1747;48.884;9.160;2023-03-23T12:21:18;2.05;;;1.35;;
3465;SDS011;1747;48.884;9.160;2023-03-23T12:23:52;3.83;;;1.45;;
3465;SDS011;1747;48.884;9.160;2023-03-23T12:26:26;4.97;;;1.63;;
3465;SDS011;1747;48.884;9.160;2023-03-23T12:29:04;3.42;;;1.50;;
3465;SDS011;1747;48.884;9.160;2023-03-23T12:31:54;1.58;;;1.25;;
3465;SDS011;1747;48.884;9.160;2023-03-23T12:34:31;2.15;;;1.60;;
3465;SDS011;1747;48.884;9.160;2023-03-23T12:37:13;1.95;;;1.30;;
3465;SDS011;1747;48.884;9.160;2023-03-23T12:40:04;2.70;;;1.60;;
3465;SDS011;1747;48.884;9.160;2023-03-23T12:42:43;2.85;;;1.60;;
3465;SDS011;1747;48.884;9.160;2023-03-23T12:45:19;2.45;;;1.40;;
3465;SDS011;1747;48.884;9.160;2023-03-23T12:47:53;2.08;;;1.45;;
3465;SDS011;1747;48.884;9.160;2023-03-23T12:50:26;1.70;;;1.60;;
3465;SDS011;1747;48.884;9.160;2023-03-23T12:52:57;1.52;;;1.35;;
3465;SDS011;1747;48.884;9.160;2023-03-23T12:55:31;2.53;;;1.50;;
3465;SDS011;1747;48.884;9.160;2023-03-23T12:58:05;1.88;;;1.63;;
3465;SDS011;1747;48.884;9.160;2023-03-23T13:00:38;3.47;;;1.80;;
3465;SDS011;1747;48.884;9.160;2023-03-23T13:03:17;2.25;;;1.95;;
3465;SDS011;1747;48.884;9.160;2023-03-23T13:05:52;2.55;;;1.70;;
3465;SDS011;1747;48.884;9.160;2023-03-23T13:08:25;3.08;;;2.00;;
3465;SDS011;1747;48.884;9.160;2023-03-23T13:10:58;2.75;;;1.67;;
3465;SDS011;1747;48.884;9.160;2023-03-23T13:13:39;3.50;;;1.80;;
3465;SDS011;1747;48.884;9.160;2023-03-23T13:16:11;3.25;;;1.65;;
3465;SDS011;1747;48.884;9.160;2023-03-23T13:18:44;3.97;;;1.77;;
3465;SDS011;1747;48.884;9.160;2023-03-23T13:21:16;4.10;;;1.80;;
3465;SDS011;1747;48.884;9.160;2023-03-23T13:23:48;2.92;;;1.60;;
3465;SDS011;1747;48.884;9.160;2023-03-23T13:26:18;3.28;;;1.95;;
3465;SDS011;1747;48.884;9.160;2023-03-23T13:28:58;1.98;;;1.50;;
3465;SDS011;1747;48.884;9.160;2023-03-23T13:31:27;2.05;;;1.70;;
3465;SDS011;1747;48.884;9.160;2023-03-23T13:33:58;5.00;;;1.95;;
3465;SDS011;1747;48.884;9.160;2023-03-23T13:36:29;2.03;;;1.60;;
3465;SDS011;1747;48.884;9.160;2023-03-23T13:38:58;4.00;;;1.85;;
3465;SDS011;1747;48.884;9.160;2023-03-23T13:41:26;1.73;;;1.58;;
3465;SDS011;1747;48.884;9.160;2023-03-23T13:44:05;4.50;;;1.70;;
3465;SDS011;1747;48.884;9.160;2023-03-23T13:46:53;2.40;;;1.98;;
3465;SDS011;1747;48.884;9.160;2023-03-23T13:49:21;2.42;;;1.60;;
3465;SDS011;1747;48.884;9.160;2023-03-23T13:52:01;5.30;;;2.00;;
3465;SDS011;1747;48.884;9.160;2023-03-23T13:54:42;2.67;;;1.90;;
3465;SDS011;1747;48.884;9.160;2023-03-23T13:57:33;3.67;;;1.83;;
3465;SDS011;1747;48.884;9.160;2023-03-23T14:00:22;4.43;;;2.00;;
3465;SDS011;1747;48.884;9.160;2023-03-23T14:02:58;2.38;;;1.90;;
3465;SDS011;1747;48.884;9.160;2023-03-23T14:05:30;3.75;;;2.05;;
3465;SDS011;1747;48.884;9.160;2023-03-23T14:08:01;6.15;;;2.08;;
3465;SDS011;1747;48.884;9.160;2023-03-23T14:10:37;2.15;;;1.50;;
3465;SDS011;1747;48.884;9.160;2023-03-23T14:13:10;1.83;;;1.40;;
3465;SDS011;1747;48.884;9.160;2023-03-23T14:15:45;3.20;;;1.70;;
3465;SDS011;1747;48.884;9.160;2023-03-23T14:18:22;2.75;;;1.73;;
3465;SDS011;1747;48.884;9.160;2023-03-23T14:20:51;2.92;;;1.70;;
3465;SDS011;1747;48.884;9.160;2023-03-23T14:23:18;2.38;;;1.80;;
3465;SDS011;1747;48.884;9.160;2023-03-23T14:25:53;4.15;;;1.83;;
3465;SDS011;1747;48.884;9.160;2023-03-23T14:28:23;3.20;;;2.00;;
3465;SDS011;1747;48.884;9.160;2023-03-23T14:30:54;2.30;;;1.70;;
3465;SDS011;1747;48.884;9.160;2023-03-23T14:33:22;1.92;;;1.65;;
3465;SDS011;1747;48.884;9.160;2023-03-23T14:35:52;4.32;;;1.60;;
3465;SDS011;1747;48.884;9.160;2023-03-23T14:38:21;3.00;;;1.90;;
3465;SDS011;1747;48.884;9.160;2023-03-23T14:40:51;6.70;;;3.45;;
3465;SDS011;1747;48.884;9.160;2023-03-23T14:43:20;4.70;;;3.38;;
3465;SDS011;1747;48.884;9.160;2023-03-23T14:45:50;5.68;;;3.33;;
3465;SDS011;1747;48.884;9.160;2023-03-23T14:48:20;5.25;;;2.88;;
3465;SDS011;1747;48.884;9.160;2023-03-23T14:50:51;7.28;;;3.40;;
3465;SDS011;1747;48.884;9.160;2023-03-23T14:53:23;6.50;;;3.80;;
3465;SDS011;1747;48.884;9.160;2023-03-23T14:55:51;4.90;;;3.53;;
3465;SDS011;1747;48.884;9.160;2023-03-23T14:58:21;3.80;;;2.92;;
3465;SDS011;1747;48.884;9.160;2023-03-23T15:00:54;4.32;;;2.63;;
3465;SDS011;1747;48.884;9.160;2023-03-23T15:03:25;3.28;;;2.28;;
3465;SDS011;1747;48.884;9.160;2023-03-23T15:06:01;4.88;;;2.67;;
3465;SDS011;1747;48.884;9.160;2023-03-23T15:08:34;5.03;;;2.58;;
3465;SDS011;1747;48.884;9.160;2023-03-23T15:11:03;3.45;;;2.63;;
3465;SDS011;1747;48.884;9.160;2023-03-23T15:13:33;2.78;;;1.90;;
3465;SDS011;1747;48.884;9.160;2023-03-23T15:16:02;2.70;;;1.90;;
3465;SDS011;1747;48.884;9.160;2023-03-23T15:18:34;4.15;;;2.10;;
3465;SDS011;1747;48.884;9.160;2023-03-23T15:21:08;4.18;;;2.10;;
3465;SDS011;1747;48.884;9.160;2023-03-23T15:23:40;6.15;;;3.53;;
3465;SDS011;1747;48.884;9.160;2023-03-23T15:29:04;3.58;;;2.28;;
3465;SDS011;1747;48.884;9.160;2023-03-23T15:31:41;3.00;;;2.28;;
3465;SDS011;1747;48.884;9.160;2023-03-23T15:34:13;6.65;;;2.80;;
3465;SDS011;1747;48.884;9.160;2023-03-23T15:36:46;4.38;;;2.95;;
3465;SDS011;1747;48.884;9.160;2023-03-23T15:39:18;2.20;;;1.70;;
3465;SDS011;1747;48.884;9.160;2023-03-23T15:41:46;2.47;;;1.80;;
3465;SDS011;1747;48.884;9.160;2023-03-23T15:44:20;4.30;;;1.63;;
3465;SDS011;1747;48.884;9.160;2023-03-23T15:47:04;2.65;;;1.73;;
3465;SDS011;1747;48.884;9.160;2023-03-23T15:49:42;4.90;;;1.95;;